Camden, IN (46917)

3:05 PM EDT on July 25, 2016 (GMT -0400)
Carroll Jr/Sr High School | | Change Station

Elev 715 ft 40.55 °N, 86.48 °W | Updated 27 seconds ago

Scattered Clouds
Scattered Clouds
81.5 °F
Feels Like 79 °F
N
6.4
Wind Variable Wind from NW
Gusts 8.8 mph

Today
High -- | Low -- °F
--% Chance of Precip.
Yesterday
High -- | Low -- °F
Precip. -- in
Pressure 30.02 in
Visibility 10.0 miles
Clouds Scattered Clouds 2700 ft
Scattered Clouds 3500 ft
Heat Index 79 °F
Dew Point 29 °F
Humidity 15%
Rainfall 0.08 in
Snow Depth Not available.
6:36 AM 9:07 PM
Waning Gibbous, 63% visible
METAR KGGP 251855Z AUTO 28006KT 10SM SCT027 SCT035 27/21 A3002 RMK AO2
Pressure 30.02 in
Visibility 10.0 miles
Clouds Scattered Clouds 2700 ft
Scattered Clouds 3500 ft
Heat Index 79 °F
Dew Point 29 °F
Humidity 15%
Rainfall 0.08 in
Snow Depth Not available.
6:36 AM 9:07 PM
Waning Gibbous, 63% visible
METAR KGGP 251855Z AUTO 28006KT 10SM SCT027 SCT035 27/21 A3002 RMK AO2
Record highs are possible for parts of the Northeast Monday and Tuesday, as parts of the central U.S. take a little breather from the worst of summer's dog day heat.

Expansive high pressure in the upper atmosphere will focus on parts of the East and West this week, sending heat indices well into the triple digits from the Mid-Atlantic states into the South.

10-Day Weather Forecast

Almanac

Astronomy

Jul. 25, 2016 Rise Set
Actual Time
Civil Twilight
Nautical Twilight
Astronomical Twilight
Moon
Length of Visible Light
Length of Day
Tomorrow will be .
, % of the Moon is Illuminated

Today's Extremes

State Highs State Lows

Community

WunderPhotos

Upload Photos

1,927,373 photos uploaded!

WunderBlog® & News

Nearby

Air Quality

  Air Quality AQ Index Pollutant
Not available.

Snow Depth

Station Depth Elevation

Earthquake Activity

City Distance Mag. Time & Date
Minimum magnitude displayed is 2.5.

Coastal Water Temperatures

Place Temperature

Stations

Nearby Weather Stations

Station Location Temp. Windchill Dew Point Humidity Wind Precip. Elev Updated Type
                   

Watches & Warnings

There are currently no watches in effect.